Terminal Aerodrome Forecast
Issued by NWS Bismarck, ND

Home | Current Version | Previous Version | Graphics & Text | Print | Product List | Glossary On
Versions: 1 2 3 4 5 6 7 8 9 10 11 12 13 14 15 16 17 18 19
712
FTUS43 KBIS 250227 AAB
TAFBIS
TAF AMD
KBIS 250227Z 2502/2524 08011KT P6SM SKC
     FM250600 12006KT P6SM SCT200
     FM250800 13006KT 1 1/2SM BR SCT015
     FM251300 15009KT 2SM BR SCT025
     FM251500 16010G19KT P6SM BKN200=

USA.gov is the U.S. government's official web portal to all federal, state and local government web resources and services.